Portada
METAR-TAF:

METAR-TAF

Aeropuertos :

Aurillac, Francia

latitud: 44-53N, longitud: 002-25E, altitud: 639 m

Observación

El informe se hizo hace 31 minutos, a las 08:30 UTC
Viento 9 kt del este-sureste
Temperatura 7°C
Humedad 66%
Presión 1021 hPa
Visibilidad 10 km o más
sin nubes por debajo de 1500 m y sin presencia de cumulonimbus.

METAR: LFLW 180830Z AUTO 11009KT CAVOK 07/01 Q1021 NOSIG

Hora: 10:01 (09:01 UTC)

Pronóstico

El informe se hizo hace 1 hora y 1 minutos, a las 08:00 UTC
Pronóstico válido del 18 a las 09 UTC al 18 a las 18 UTC
Viento 9 kt del este
Visibilidad 10 km o más
sin nubes por debajo de 1500 m y sin presencia de cumulonimbus.
Evolucionando progresivamente
del 18 a las 09 UTC al 18 a las 10 UTC
Viento 10 kt del sur-sureste
Temporalmente
del 18 a las 11 UTC al 18 a las 16 UTC
Viento 15 kt del sur-sureste con ráfagas de 25 kt

TAF: LFLW 180800Z 1809/1818 10009KT CAVOK BECMG 1809/1810 16010KT TEMPO 1811/1816 16015G25KT

Observaciones y pronósticos meteorológicos de más de 4000 aeropuertos (mensajes METAR y TAF).

Los puntos amarillos y rojos representan las estaciones disponibles.

Ponga el ratón en el punto deseado para ver el nombre de la estación.

Haga clic para ver las observaciones y los pronósticos meteorológicos.

Para cambiar el mapa : haga clic en los botones verdes con una cruz de color negro para hacer un zoom, en el botón verde con un guión para alejar o en las flechas verdes para mapas adyacentes.


METAR-TAF: